sensor_id;sensor_type;location;lat;lon;timestamp;temperature;humidity
2158;DHT22;41972;48.774;9.282;2023-05-20T00:01:58;11.00;99.90
2158;DHT22;41972;48.774;9.282;2023-05-20T00:04:23;11.30;99.90
2158;DHT22;41972;48.774;9.282;2023-05-20T00:06:49;11.10;99.90
2158;DHT22;41972;48.774;9.282;2023-05-20T00:09:14;11.00;99.90
2158;DHT22;41972;48.774;9.282;2023-05-20T00:11:41;10.90;99.90
2158;DHT22;41972;48.774;9.282;2023-05-20T00:14:07;10.70;99.90
2158;DHT22;41972;48.774;9.282;2023-05-20T00:16:33;10.70;99.90
2158;DHT22;41972;48.774;9.282;2023-05-20T00:18:58;10.70;99.90
2158;DHT22;41972;48.774;9.282;2023-05-20T00:21:24;10.80;99.90
2158;DHT22;41972;48.774;9.282;2023-05-20T00:23:50;10.70;99.90
2158;DHT22;41972;48.774;9.282;2023-05-20T00:26:15;10.60;99.90
2158;DHT22;41972;48.774;9.282;2023-05-20T00:28:42;10.70;99.90
2158;DHT22;41972;48.774;9.282;2023-05-20T00:31:08;10.80;99.90
2158;DHT22;41972;48.774;9.282;2023-05-20T00:33:33;10.90;99.90
2158;DHT22;41972;48.774;9.282;2023-05-20T00:36:00;11.00;99.90
2158;DHT22;41972;48.774;9.282;2023-05-20T00:38:26;10.90;99.90
2158;DHT22;41972;48.774;9.282;2023-05-20T00:40:51;10.90;99.90
2158;DHT22;41972;48.774;9.282;2023-05-20T00:43:17;10.80;99.90
2158;DHT22;41972;48.774;9.282;2023-05-20T00:45:45;10.60;99.90
2158;DHT22;41972;48.774;9.282;2023-05-20T00:48:10;10.80;99.90
2158;DHT22;41972;48.774;9.282;2023-05-20T00:50:36;10.70;99.90
2158;DHT22;41972;48.774;9.282;2023-05-20T00:53:02;10.80;99.90
2158;DHT22;41972;48.774;9.282;2023-05-20T00:55:28;10.80;99.90
2158;DHT22;41972;48.774;9.282;2023-05-20T00:57:54;10.70;99.90
2158;DHT22;41972;48.774;9.282;2023-05-20T01:00:19;10.70;99.90
2158;DHT22;41972;48.774;9.282;2023-05-20T01:02:45;10.80;99.90
2158;DHT22;41972;48.774;9.282;2023-05-20T01:05:11;10.80;99.90
2158;DHT22;41972;48.774;9.282;2023-05-20T01:07:36;10.80;99.90
2158;DHT22;41972;48.774;9.282;2023-05-20T01:10:02;10.90;99.90
2158;DHT22;41972;48.774;9.282;2023-05-20T01:12:36;10.80;99.90
2158;DHT22;41972;48.774;9.282;2023-05-20T01:15:08;11.10;99.90
2158;DHT22;41972;48.774;9.282;2023-05-20T01:17:40;11.20;99.90
2158;DHT22;41972;48.774;9.282;2023-05-20T01:20:09;11.30;99.90
2158;DHT22;41972;48.774;9.282;2023-05-20T01:22:53;11.30;99.90
2158;DHT22;41972;48.774;9.282;2023-05-20T01:25:19;11.30;99.90
2158;DHT22;41972;48.774;9.282;2023-05-20T01:27:44;11.40;99.90
2158;DHT22;41972;48.774;9.282;2023-05-20T01:30:11;11.30;99.90
2158;DHT22;41972;48.774;9.282;2023-05-20T01:32:57;11.00;99.90
2158;DHT22;41972;48.774;9.282;2023-05-20T01:35:24;11.00;99.90
2158;DHT22;41972;48.774;9.282;2023-05-20T01:37:51;11.00;99.90
2158;DHT22;41972;48.774;9.282;2023-05-20T01:40:18;10.90;99.90
2158;DHT22;41972;48.774;9.282;2023-05-20T01:42:45;10.90;99.90
2158;DHT22;41972;48.774;9.282;2023-05-20T01:45:17;10.90;99.90
2158;DHT22;41972;48.774;9.282;2023-05-20T01:47:44;10.80;99.90
2158;DHT22;41972;48.774;9.282;2023-05-20T01:50:10;10.90;99.90
2158;DHT22;41972;48.774;9.282;2023-05-20T01:52:35;10.70;99.90
2158;DHT22;41972;48.774;9.282;2023-05-20T01:55:01;10.60;99.90
2158;DHT22;41972;48.774;9.282;2023-05-20T01:57:27;10.60;99.90
2158;DHT22;41972;48.774;9.282;2023-05-20T01:59:52;10.40;99.90
2158;DHT22;41972;48.774;9.282;2023-05-20T02:02:18;10.40;99.90
2158;DHT22;41972;48.774;9.282;2023-05-20T02:04:49;10.40;99.90
2158;DHT22;41972;48.774;9.282;2023-05-20T02:07:15;10.40;99.90
2158;DHT22;41972;48.774;9.282;2023-05-20T02:09:41;10.40;99.90
2158;DHT22;41972;48.774;9.282;2023-05-20T02:12:08;10.40;99.90
2158;DHT22;41972;48.774;9.282;2023-05-20T02:14:33;10.30;99.90
2158;DHT22;41972;48.774;9.282;2023-05-20T02:16:59;10.10;99.90
2158;DHT22;41972;48.774;9.282;2023-05-20T02:19:24;10.20;99.90
2158;DHT22;41972;48.774;9.282;2023-05-20T02:21:50;9.90;99.90
2158;DHT22;41972;48.774;9.282;2023-05-20T02:24:15;9.90;99.90
2158;DHT22;41972;48.774;9.282;2023-05-20T02:26:41;9.80;99.90
2158;DHT22;41972;48.774;9.282;2023-05-20T02:29:08;9.80;99.90
2158;DHT22;41972;48.774;9.282;2023-05-20T02:31:34;9.70;99.90
2158;DHT22;41972;48.774;9.282;2023-05-20T02:34:00;9.70;99.90
2158;DHT22;41972;48.774;9.282;2023-05-20T02:36:25;9.70;99.90
2158;DHT22;41972;48.774;9.282;2023-05-20T02:38:52;9.60;99.90
2158;DHT22;41972;48.774;9.282;2023-05-20T02:41:21;9.50;99.90
2158;DHT22;41972;48.774;9.282;2023-05-20T02:43:46;9.30;99.90
2158;DHT22;41972;48.774;9.282;2023-05-20T02:46:12;9.30;99.90
2158;DHT22;41972;48.774;9.282;2023-05-20T02:48:37;9.20;99.90
2158;DHT22;41972;48.774;9.282;2023-05-20T02:51:04;9.20;99.90
2158;DHT22;41972;48.774;9.282;2023-05-20T02:53:30;9.30;99.90
2158;DHT22;41972;48.774;9.282;2023-05-20T02:55:56;9.30;99.90
2158;DHT22;41972;48.774;9.282;2023-05-20T02:58:22;9.40;99.90
2158;DHT22;41972;48.774;9.282;2023-05-20T03:00:51;9.40;99.90
2158;DHT22;41972;48.774;9.282;2023-05-20T03:03:16;9.40;99.90
2158;DHT22;41972;48.774;9.282;2023-05-20T03:05:42;9.50;99.90
2158;DHT22;41972;48.774;9.282;2023-05-20T03:08:10;9.30;99.90
2158;DHT22;41972;48.774;9.282;2023-05-20T03:10:39;9.30;99.90
2158;DHT22;41972;48.774;9.282;2023-05-20T03:13:06;9.30;99.90
2158;DHT22;41972;48.774;9.282;2023-05-20T03:15:42;9.40;99.90
2158;DHT22;41972;48.774;9.282;2023-05-20T03:18:10;9.50;99.90
2158;DHT22;41972;48.774;9.282;2023-05-20T03:20:36;9.30;99.90
2158;DHT22;41972;48.774;9.282;2023-05-20T03:23:03;9.20;99.90
2158;DHT22;41972;48.774;9.282;2023-05-20T03:25:28;9.10;99.90
2158;DHT22;41972;48.774;9.282;2023-05-20T03:27:54;9.10;99.90
2158;DHT22;41972;48.774;9.282;2023-05-20T03:30:20;9.10;99.90
2158;DHT22;41972;48.774;9.282;2023-05-20T03:32:46;9.00;99.90
2158;DHT22;41972;48.774;9.282;2023-05-20T03:35:11;9.00;99.90
2158;DHT22;41972;48.774;9.282;2023-05-20T03:37:37;8.90;99.90
2158;DHT22;41972;48.774;9.282;2023-05-20T03:40:04;9.00;99.90
2158;DHT22;41972;48.774;9.282;2023-05-20T03:42:32;9.00;99.90
2158;DHT22;41972;48.774;9.282;2023-05-20T03:44:58;9.00;99.90
2158;DHT22;41972;48.774;9.282;2023-05-20T03:47:25;9.10;99.90
2158;DHT22;41972;48.774;9.282;2023-05-20T03:49:51;9.10;99.90
2158;DHT22;41972;48.774;9.282;2023-05-20T03:52:16;9.20;99.90
2158;DHT22;41972;48.774;9.282;2023-05-20T03:54:42;9.20;99.90
2158;DHT22;41972;48.774;9.282;2023-05-20T03:57:07;9.10;99.90
2158;DHT22;41972;48.774;9.282;2023-05-20T03:59:35;9.10;99.90
2158;DHT22;41972;48.774;9.282;2023-05-20T04:02:01;9.10;99.90
2158;DHT22;41972;48.774;9.282;2023-05-20T04:04:27;9.20;99.90
2158;DHT22;41972;48.774;9.282;2023-05-20T04:06:53;9.20;99.90
2158;DHT22;41972;48.774;9.282;2023-05-20T04:09:19;9.20;99.90
2158;DHT22;41972;48.774;9.282;2023-05-20T04:11:44;9.20;99.90
2158;DHT22;41972;48.774;9.282;2023-05-20T04:14:10;9.40;99.90
2158;DHT22;41972;48.774;9.282;2023-05-20T04:16:36;9.50;99.90
2158;DHT22;41972;48.774;9.282;2023-05-20T04:19:02;9.70;99.90
2158;DHT22;41972;48.774;9.282;2023-05-20T04:21:28;9.90;99.90
2158;DHT22;41972;48.774;9.282;2023-05-20T04:23:53;10.10;99.90
2158;DHT22;41972;48.774;9.282;2023-05-20T04:26:19;10.20;99.90
2158;DHT22;41972;48.774;9.282;2023-05-20T04:28:45;10.20;99.90
2158;DHT22;41972;48.774;9.282;2023-05-20T04:31:13;10.20;99.90
2158;DHT22;41972;48.774;9.282;2023-05-20T04:33:38;10.20;99.90
2158;DHT22;41972;48.774;9.282;2023-05-20T04:36:06;10.50;99.90
2158;DHT22;41972;48.774;9.282;2023-05-20T04:38:32;10.80;99.90
2158;DHT22;41972;48.774;9.282;2023-05-20T04:40:58;10.80;99.90
2158;DHT22;41972;48.774;9.282;2023-05-20T04:43:24;10.90;99.90
2158;DHT22;41972;48.774;9.282;2023-05-20T04:45:51;11.10;99.90
2158;DHT22;41972;48.774;9.282;2023-05-20T04:48:17;11.40;99.90
2158;DHT22;41972;48.774;9.282;2023-05-20T04:50:43;11.90;99.90
2158;DHT22;41972;48.774;9.282;2023-05-20T04:53:10;12.20;99.90
2158;DHT22;41972;48.774;9.282;2023-05-20T04:55:36;12.40;99.90
2158;DHT22;41972;48.774;9.282;2023-05-20T04:58:02;12.70;99.90
2158;DHT22;41972;48.774;9.282;2023-05-20T05:00:28;13.00;99.90
2158;DHT22;41972;48.774;9.282;2023-05-20T05:02:54;12.70;99.90
2158;DHT22;41972;48.774;9.282;2023-05-20T05:05:20;12.80;99.90
2158;DHT22;41972;48.774;9.282;2023-05-20T05:07:45;13.10;99.90
2158;DHT22;41972;48.774;9.282;2023-05-20T05:10:11;12.90;99.90
2158;DHT22;41972;48.774;9.282;2023-05-20T05:12:37;13.10;99.90
2158;DHT22;41972;48.774;9.282;2023-05-20T05:15:03;12.80;99.90
2158;DHT22;41972;48.774;9.282;2023-05-20T05:17:28;12.90;99.90
2158;DHT22;41972;48.774;9.282;2023-05-20T05:19:54;13.10;99.90
2158;DHT22;41972;48.774;9.282;2023-05-20T05:22:20;13.20;99.90
2158;DHT22;41972;48.774;9.282;2023-05-20T05:24:45;13.20;99.90
2158;DHT22;41972;48.774;9.282;2023-05-20T05:27:11;13.30;99.90
2158;DHT22;41972;48.774;9.282;2023-05-20T05:29:36;13.40;99.90
2158;DHT22;41972;48.774;9.282;2023-05-20T05:32:03;13.60;99.90
2158;DHT22;41972;48.774;9.282;2023-05-20T05:34:29;13.60;99.90
2158;DHT22;41972;48.774;9.282;2023-05-20T05:36:54;13.60;99.90
2158;DHT22;41972;48.774;9.282;2023-05-20T05:39:20;13.60;99.90
2158;DHT22;41972;48.774;9.282;2023-05-20T05:41:45;13.60;99.90
2158;DHT22;41972;48.774;9.282;2023-05-20T05:44:11;13.90;99.90
2158;DHT22;41972;48.774;9.282;2023-05-20T05:46:37;13.90;99.90
2158;DHT22;41972;48.774;9.282;2023-05-20T05:49:02;13.90;99.90
2158;DHT22;41972;48.774;9.282;2023-05-20T05:51:28;14.10;99.90
2158;DHT22;41972;48.774;9.282;2023-05-20T05:53:53;14.20;99.90
2158;DHT22;41972;48.774;9.282;2023-05-20T05:56:19;14.30;99.90
2158;DHT22;41972;48.774;9.282;2023-05-20T05:58:46;14.90;99.90
2158;DHT22;41972;48.774;9.282;2023-05-20T06:01:12;14.90;99.90
2158;DHT22;41972;48.774;9.282;2023-05-20T06:03:38;14.20;99.90
2158;DHT22;41972;48.774;9.282;2023-05-20T06:06:03;14.60;99.90
2158;DHT22;41972;48.774;9.282;2023-05-20T06:08:31;14.70;99.90
2158;DHT22;41972;48.774;9.282;2023-05-20T06:10:57;15.30;99.90
2158;DHT22;41972;48.774;9.282;2023-05-20T06:13:22;15.90;99.90
2158;DHT22;41972;48.774;9.282;2023-05-20T06:15:48;15.90;99.90
2158;DHT22;41972;48.774;9.282;2023-05-20T06:18:15;16.10;99.90
2158;DHT22;41972;48.774;9.282;2023-05-20T06:20:40;16.70;99.90
2158;DHT22;41972;48.774;9.282;2023-05-20T06:23:06;15.70;99.90
2158;DHT22;41972;48.774;9.282;2023-05-20T06:25:31;15.70;99.90
2158;DHT22;41972;48.774;9.282;2023-05-20T06:27:57;15.70;99.90
2158;DHT22;41972;48.774;9.282;2023-05-20T06:30:23;15.40;99.90
2158;DHT22;41972;48.774;9.282;2023-05-20T06:32:48;16.30;99.90
2158;DHT22;41972;48.774;9.282;2023-05-20T06:35:14;16.20;99.90
2158;DHT22;41972;48.774;9.282;2023-05-20T06:37:39;15.70;99.90
2158;DHT22;41972;48.774;9.282;2023-05-20T06:40:05;16.90;99.90
2158;DHT22;41972;48.774;9.282;2023-05-20T06:42:31;17.10;99.90
2158;DHT22;41972;48.774;9.282;2023-05-20T06:44:57;16.70;99.90
2158;DHT22;41972;48.774;9.282;2023-05-20T06:47:22;16.30;99.90
2158;DHT22;41972;48.774;9.282;2023-05-20T06:49:48;17.00;99.90
2158;DHT22;41972;48.774;9.282;2023-05-20T06:52:14;17.00;99.90
2158;DHT22;41972;48.774;9.282;2023-05-20T06:54:39;17.30;99.90
2158;DHT22;41972;48.774;9.282;2023-05-20T06:57:09;17.20;99.90
2158;DHT22;41972;48.774;9.282;2023-05-20T06:59:36;16.90;99.90
2158;DHT22;41972;48.774;9.282;2023-05-20T07:02:02;16.30;99.90
2158;DHT22;41972;48.774;9.282;2023-05-20T07:04:28;16.30;99.90
2158;DHT22;41972;48.774;9.282;2023-05-20T07:06:53;17.20;99.90
2158;DHT22;41972;48.774;9.282;2023-05-20T07:09:19;17.60;99.90
2158;DHT22;41972;48.774;9.282;2023-05-20T07:11:44;17.60;99.90
2158;DHT22;41972;48.774;9.282;2023-05-20T07:14:10;18.00;99.90
2158;DHT22;41972;48.774;9.282;2023-05-20T07:16:36;17.60;99.90
2158;DHT22;41972;48.774;9.282;2023-05-20T07:19:02;16.50;99.90
2158;DHT22;41972;48.774;9.282;2023-05-20T07:21:28;17.20;99.90
2158;DHT22;41972;48.774;9.282;2023-05-20T07:23:54;19.20;99.90
2158;DHT22;41972;48.774;9.282;2023-05-20T07:26:19;19.90;99.90
2158;DHT22;41972;48.774;9.282;2023-05-20T07:28:46;20.40;99.90
2158;DHT22;41972;48.774;9.282;2023-05-20T07:31:11;19.60;99.90
2158;DHT22;41972;48.774;9.282;2023-05-20T07:33:37;19.30;99.90
2158;DHT22;41972;48.774;9.282;2023-05-20T07:36:03;21.50;99.90
2158;DHT22;41972;48.774;9.282;2023-05-20T07:38:29;19.80;99.90
2158;DHT22;41972;48.774;9.282;2023-05-20T07:40:55;19.10;99.90
2158;DHT22;41972;48.774;9.282;2023-05-20T07:43:20;19.00;99.90
2158;DHT22;41972;48.774;9.282;2023-05-20T07:45:46;18.70;99.90
2158;DHT22;41972;48.774;9.282;2023-05-20T07:48:11;19.20;99.90
2158;DHT22;41972;48.774;9.282;2023-05-20T07:50:37;19.40;99.90
2158;DHT22;41972;48.774;9.282;2023-05-20T07:53:04;18.20;99.90
2158;DHT22;41972;48.774;9.282;2023-05-20T07:55:32;18.80;99.90
2158;DHT22;41972;48.774;9.282;2023-05-20T07:57:58;19.20;99.90
2158;DHT22;41972;48.774;9.282;2023-05-20T08:00:23;20.70;99.90
2158;DHT22;41972;48.774;9.282;2023-05-20T08:02:49;20.90;99.90
2158;DHT22;41972;48.774;9.282;2023-05-20T08:05:16;21.70;99.90
2158;DHT22;41972;48.774;9.282;2023-05-20T08:07:42;20.30;99.90
2158;DHT22;41972;48.774;9.282;2023-05-20T08:10:08;20.40;99.90
2158;DHT22;41972;48.774;9.282;2023-05-20T08:12:33;17.60;99.90
2158;DHT22;41972;48.774;9.282;2023-05-20T08:14:59;18.50;99.90
2158;DHT22;41972;48.774;9.282;2023-05-20T08:17:24;19.30;99.90
2158;DHT22;41972;48.774;9.282;2023-05-20T08:19:50;19.60;99.90
2158;DHT22;41972;48.774;9.282;2023-05-20T08:22:16;19.50;99.90
2158;DHT22;41972;48.774;9.282;2023-05-20T08:24:41;18.80;99.90
2158;DHT22;41972;48.774;9.282;2023-05-20T08:27:08;18.50;99.90
2158;DHT22;41972;48.774;9.282;2023-05-20T08:29:34;18.10;99.90
2158;DHT22;41972;48.774;9.282;2023-05-20T08:32:00;18.10;99.90
2158;DHT22;41972;48.774;9.282;2023-05-20T08:34:26;18.30;99.90
2158;DHT22;41972;48.774;9.282;2023-05-20T08:36:51;18.10;99.90
2158;DHT22;41972;48.774;9.282;2023-05-20T08:39:17;18.50;99.90
2158;DHT22;41972;48.774;9.282;2023-05-20T08:41:45;19.70;99.90
2158;DHT22;41972;48.774;9.282;2023-05-20T08:44:11;20.90;99.90
2158;DHT22;41972;48.774;9.282;2023-05-20T08:46:37;21.10;99.90
2158;DHT22;41972;48.774;9.282;2023-05-20T08:49:03;21.90;99.90
2158;DHT22;41972;48.774;9.282;2023-05-20T08:51:32;24.50;99.90
2158;DHT22;41972;48.774;9.282;2023-05-20T08:53:59;25.20;95.20
2158;DHT22;41972;48.774;9.282;2023-05-20T08:56:25;23.20;95.20
2158;DHT22;41972;48.774;9.282;2023-05-20T08:58:51;22.80;96.50
2158;DHT22;41972;48.774;9.282;2023-05-20T09:01:18;22.70;99.90
2158;DHT22;41972;48.774;9.282;2023-05-20T09:03:43;22.90;96.50
2158;DHT22;41972;48.774;9.282;2023-05-20T09:06:09;23.00;96.20
2158;DHT22;41972;48.774;9.282;2023-05-20T09:08:35;24.20;95.20
2158;DHT22;41972;48.774;9.282;2023-05-20T09:11:00;25.30;93.10
2158;DHT22;41972;48.774;9.282;2023-05-20T09:13:29;24.50;93.00
2158;DHT22;41972;48.774;9.282;2023-05-20T09:15:55;24.60;92.00
2158;DHT22;41972;48.774;9.282;2023-05-20T09:18:20;21.70;93.50
2158;DHT22;41972;48.774;9.282;2023-05-20T09:20:49;21.20;94.90
2158;DHT22;41972;48.774;9.282;2023-05-20T09:23:18;22.80;95.60
2158;DHT22;41972;48.774;9.282;2023-05-20T09:25:48;24.20;92.80
2158;DHT22;41972;48.774;9.282;2023-05-20T09:28:14;27.40;87.30
2158;DHT22;41972;48.774;9.282;2023-05-20T09:30:40;25.60;87.20
2158;DHT22;41972;48.774;9.282;2023-05-20T09:33:06;25.50;85.50
2158;DHT22;41972;48.774;9.282;2023-05-20T09:35:35;24.60;87.50
2158;DHT22;41972;48.774;9.282;2023-05-20T09:38:04;22.20;90.60
2158;DHT22;41972;48.774;9.282;2023-05-20T09:40:31;22.20;92.10
2158;DHT22;41972;48.774;9.282;2023-05-20T09:43:07;23.40;91.10
2158;DHT22;41972;48.774;9.282;2023-05-20T09:45:33;22.70;91.50
2158;DHT22;41972;48.774;9.282;2023-05-20T09:48:00;21.90;91.60
2158;DHT22;41972;48.774;9.282;2023-05-20T09:50:26;21.40;93.10
2158;DHT22;41972;48.774;9.282;2023-05-20T09:52:53;21.40;94.10
2158;DHT22;41972;48.774;9.282;2023-05-20T09:55:21;21.00;96.20
2158;DHT22;41972;48.774;9.282;2023-05-20T09:57:46;20.40;96.70
2158;DHT22;41972;48.774;9.282;2023-05-20T10:00:13;22.90;95.20
2158;DHT22;41972;48.774;9.282;2023-05-20T10:02:49;25.80;90.90
2158;DHT22;41972;48.774;9.282;2023-05-20T10:05:20;29.10;80.50
2158;DHT22;41972;48.774;9.282;2023-05-20T10:10:57;25.90;83.80
2158;DHT22;41972;48.774;9.282;2023-05-20T10:21:56;25.30;75.80
2158;DHT22;41972;48.774;9.282;2023-05-20T10:24:29;24.50;78.10
2158;DHT22;41972;48.774;9.282;2023-05-20T10:26:57;21.60;80.90
2158;DHT22;41972;48.774;9.282;2023-05-20T10:29:23;23.00;84.20
2158;DHT22;41972;48.774;9.282;2023-05-20T10:31:50;22.80;86.20
2158;DHT22;41972;48.774;9.282;2023-05-20T10:34:20;24.40;76.50
2158;DHT22;41972;48.774;9.282;2023-05-20T10:39:18;24.00;86.90
2158;DHT22;41972;48.774;9.282;2023-05-20T10:41:49;24.50;81.00
2158;DHT22;41972;48.774;9.282;2023-05-20T10:44:15;24.50;79.00
2158;DHT22;41972;48.774;9.282;2023-05-20T10:46:40;23.30;82.10
2158;DHT22;41972;48.774;9.282;2023-05-20T10:49:19;22.30;82.20
2158;DHT22;41972;48.774;9.282;2023-05-20T10:51:45;22.50;81.10
2158;DHT22;41972;48.774;9.282;2023-05-20T10:54:12;21.80;81.70
2158;DHT22;41972;48.774;9.282;2023-05-20T10:56:39;22.30;80.60
2158;DHT22;41972;48.774;9.282;2023-05-20T10:59:05;23.10;82.90
2158;DHT22;41972;48.774;9.282;2023-05-20T11:01:31;23.80;76.70
2158;DHT22;41972;48.774;9.282;2023-05-20T11:03:57;22.10;78.20
2158;DHT22;41972;48.774;9.282;2023-05-20T11:06:27;21.60;80.20
2158;DHT22;41972;48.774;9.282;2023-05-20T11:08:53;21.90;81.30
2158;DHT22;41972;48.774;9.282;2023-05-20T11:11:25;21.90;81.10
2158;DHT22;41972;48.774;9.282;2023-05-20T11:13:51;22.10;82.90
2158;DHT22;41972;48.774;9.282;2023-05-20T11:16:19;22.60;83.20
2158;DHT22;41972;48.774;9.282;2023-05-20T11:18:48;21.90;80.00
2158;DHT22;41972;48.774;9.282;2023-05-20T11:21:13;20.90;80.90
2158;DHT22;41972;48.774;9.282;2023-05-20T11:23:39;21.20;82.30
2158;DHT22;41972;48.774;9.282;2023-05-20T11:26:04;21.80;83.60
2158;DHT22;41972;48.774;9.282;2023-05-20T11:28:30;22.60;81.10
2158;DHT22;41972;48.774;9.282;2023-05-20T11:30:58;22.40;78.90
2158;DHT22;41972;48.774;9.282;2023-05-20T11:33:25;22.10;79.30
2158;DHT22;41972;48.774;9.282;2023-05-20T11:35:52;22.40;80.30
2158;DHT22;41972;48.774;9.282;2023-05-20T11:38:18;22.70;79.50
2158;DHT22;41972;48.774;9.282;2023-05-20T11:40:49;22.60;80.90
2158;DHT22;41972;48.774;9.282;2023-05-20T11:43:15;22.90;79.40
2158;DHT22;41972;48.774;9.282;2023-05-20T11:45:45;21.90;78.60
2158;DHT22;41972;48.774;9.282;2023-05-20T11:48:11;21.50;79.50
2158;DHT22;41972;48.774;9.282;2023-05-20T11:50:42;21.20;79.60
2158;DHT22;41972;48.774;9.282;2023-05-20T11:53:13;21.70;82.80
2158;DHT22;41972;48.774;9.282;2023-05-20T11:55:53;22.00;81.90
2158;DHT22;41972;48.774;9.282;2023-05-20T11:58:30;22.30;83.70
2158;DHT22;41972;48.774;9.282;2023-05-20T12:00:55;21.80;81.00
2158;DHT22;41972;48.774;9.282;2023-05-20T12:03:21;21.70;84.30
2158;DHT22;41972;48.774;9.282;2023-05-20T12:05:47;21.70;81.50
2158;DHT22;41972;48.774;9.282;2023-05-20T12:08:15;21.60;78.60
2158;DHT22;41972;48.774;9.282;2023-05-20T12:10:40;21.40;80.20
2158;DHT22;41972;48.774;9.282;2023-05-20T12:13:06;21.60;82.70
2158;DHT22;41972;48.774;9.282;2023-05-20T12:15:37;22.30;81.50
2158;DHT22;41972;48.774;9.282;2023-05-20T12:18:02;22.60;78.40
2158;DHT22;41972;48.774;9.282;2023-05-20T12:20:29;22.20;82.20
2158;DHT22;41972;48.774;9.282;2023-05-20T12:22:56;21.90;80.90
2158;DHT22;41972;48.774;9.282;2023-05-20T12:25:22;21.80;80.60
2158;DHT22;41972;48.774;9.282;2023-05-20T12:27:49;22.20;87.00
2158;DHT22;41972;48.774;9.282;2023-05-20T12:30:21;22.30;81.30
2158;DHT22;41972;48.774;9.282;2023-05-20T12:32:48;22.60;77.50
2158;DHT22;41972;48.774;9.282;2023-05-20T12:35:15;23.00;77.50
2158;DHT22;41972;48.774;9.282;2023-05-20T12:37:42;22.60;77.70
2158;DHT22;41972;48.774;9.282;2023-05-20T12:40:09;22.60;78.40
2158;DHT22;41972;48.774;9.282;2023-05-20T12:42:39;22.70;77.60
2158;DHT22;41972;48.774;9.282;2023-05-20T12:45:06;22.40;78.20
2158;DHT22;41972;48.774;9.282;2023-05-20T12:47:32;22.40;77.40
2158;DHT22;41972;48.774;9.282;2023-05-20T12:49:58;22.60;78.90
2158;DHT22;41972;48.774;9.282;2023-05-20T12:52:25;22.20;79.30
2158;DHT22;41972;48.774;9.282;2023-05-20T12:54:52;22.50;79.70
2158;DHT22;41972;48.774;9.282;2023-05-20T12:57:17;22.20;78.20
2158;DHT22;41972;48.774;9.282;2023-05-20T12:59:44;22.80;77.50
2158;DHT22;41972;48.774;9.282;2023-05-20T13:02:10;22.40;76.70
2158;DHT22;41972;48.774;9.282;2023-05-20T13:04:35;22.70;79.50
2158;DHT22;41972;48.774;9.282;2023-05-20T13:07:01;22.60;75.30
2158;DHT22;41972;48.774;9.282;2023-05-20T13:09:27;22.80;78.20
2158;DHT22;41972;48.774;9.282;2023-05-20T13:11:52;23.30;77.50
2158;DHT22;41972;48.774;9.282;2023-05-20T13:14:18;23.20;76.40
2158;DHT22;41972;48.774;9.282;2023-05-20T13:16:45;23.50;78.80
2158;DHT22;41972;48.774;9.282;2023-05-20T13:19:10;23.30;75.90
2158;DHT22;41972;48.774;9.282;2023-05-20T13:21:36;22.80;76.40
2158;DHT22;41972;48.774;9.282;2023-05-20T13:24:02;22.50;78.50
2158;DHT22;41972;48.774;9.282;2023-05-20T13:26:28;22.40;76.20
2158;DHT22;41972;48.774;9.282;2023-05-20T13:28:54;21.90;75.40
2158;DHT22;41972;48.774;9.282;2023-05-20T13:31:19;22.00;76.50
2158;DHT22;41972;48.774;9.282;2023-05-20T13:33:45;22.00;78.40
2158;DHT22;41972;48.774;9.282;2023-05-20T13:36:11;22.30;76.90
2158;DHT22;41972;48.774;9.282;2023-05-20T13:38:37;22.40;77.60
2158;DHT22;41972;48.774;9.282;2023-05-20T13:41:02;22.70;75.80
2158;DHT22;41972;48.774;9.282;2023-05-20T13:43:29;23.00;75.30
2158;DHT22;41972;48.774;9.282;2023-05-20T13:45:56;23.00;75.60
2158;DHT22;41972;48.774;9.282;2023-05-20T13:48:22;23.30;76.20
2158;DHT22;41972;48.774;9.282;2023-05-20T13:50:47;23.00;76.30
2158;DHT22;41972;48.774;9.282;2023-05-20T13:53:13;23.30;76.40
2158;DHT22;41972;48.774;9.282;2023-05-20T13:55:39;23.00;74.30
2158;DHT22;41972;48.774;9.282;2023-05-20T13:58:06;23.10;75.30
2158;DHT22;41972;48.774;9.282;2023-05-20T14:00:37;23.30;74.30
2158;DHT22;41972;48.774;9.282;2023-05-20T14:03:03;23.60;78.30
2158;DHT22;41972;48.774;9.282;2023-05-20T14:05:32;23.30;73.70
2158;DHT22;41972;48.774;9.282;2023-05-20T14:07:58;22.90;76.80
2158;DHT22;41972;48.774;9.282;2023-05-20T14:10:23;22.80;72.70
2158;DHT22;41972;48.774;9.282;2023-05-20T14:12:51;22.70;75.10
2158;DHT22;41972;48.774;9.282;2023-05-20T14:15:16;22.70;73.80
2158;DHT22;41972;48.774;9.282;2023-05-20T14:17:42;22.80;74.20
2158;DHT22;41972;48.774;9.282;2023-05-20T14:20:08;22.80;75.60
2158;DHT22;41972;48.774;9.282;2023-05-20T14:22:33;22.90;74.40
2158;DHT22;41972;48.774;9.282;2023-05-20T14:24:59;22.90;72.20
2158;DHT22;41972;48.774;9.282;2023-05-20T14:27:25;22.40;72.10
2158;DHT22;41972;48.774;9.282;2023-05-20T14:29:50;22.20;71.40
2158;DHT22;41972;48.774;9.282;2023-05-20T14:32:16;22.50;72.70
2158;DHT22;41972;48.774;9.282;2023-05-20T14:34:41;22.50;72.10
2158;DHT22;41972;48.774;9.282;2023-05-20T14:37:07;22.70;75.30
2158;DHT22;41972;48.774;9.282;2023-05-20T14:39:40;22.80;75.20
2158;DHT22;41972;48.774;9.282;2023-05-20T14:42:06;22.80;75.70
2158;DHT22;41972;48.774;9.282;2023-05-20T14:44:31;22.50;72.80
2158;DHT22;41972;48.774;9.282;2023-05-20T14:46:57;22.20;75.70
2158;DHT22;41972;48.774;9.282;2023-05-20T14:49:22;22.20;73.50
2158;DHT22;41972;48.774;9.282;2023-05-20T14:51:48;22.20;74.10
2158;DHT22;41972;48.774;9.282;2023-05-20T14:54:14;22.20;73.90
2158;DHT22;41972;48.774;9.282;2023-05-20T14:56:41;22.40;75.30
2158;DHT22;41972;48.774;9.282;2023-05-20T14:59:07;22.50;75.30
2158;DHT22;41972;48.774;9.282;2023-05-20T15:01:33;22.30;73.80
2158;DHT22;41972;48.774;9.282;2023-05-20T15:03:58;22.20;75.00
2158;DHT22;41972;48.774;9.282;2023-05-20T15:06:24;22.40;73.70
2158;DHT22;41972;48.774;9.282;2023-05-20T15:08:50;22.60;75.90
2158;DHT22;41972;48.774;9.282;2023-05-20T15:11:16;22.40;71.20
2158;DHT22;41972;48.774;9.282;2023-05-20T15:13:41;22.40;73.90
2158;DHT22;41972;48.774;9.282;2023-05-20T15:16:08;22.50;73.90
2158;DHT22;41972;48.774;9.282;2023-05-20T15:18:34;22.50;75.00
2158;DHT22;41972;48.774;9.282;2023-05-20T15:21:00;22.60;73.10
2158;DHT22;41972;48.774;9.282;2023-05-20T15:23:25;22.50;73.90
2158;DHT22;41972;48.774;9.282;2023-05-20T15:25:51;22.50;72.50
2158;DHT22;41972;48.774;9.282;2023-05-20T15:28:17;22.50;75.30
2158;DHT22;41972;48.774;9.282;2023-05-20T15:30:44;22.50;73.20
2158;DHT22;41972;48.774;9.282;2023-05-20T15:33:10;22.50;74.60
2158;DHT22;41972;48.774;9.282;2023-05-20T15:35:36;22.50;72.80
2158;DHT22;41972;48.774;9.282;2023-05-20T15:38:02;22.50;72.50
2158;DHT22;41972;48.774;9.282;2023-05-20T15:40:27;22.50;72.80
2158;DHT22;41972;48.774;9.282;2023-05-20T15:42:53;22.50;74.40
2158;DHT22;41972;48.774;9.282;2023-05-20T15:45:18;22.60;74.60
2158;DHT22;41972;48.774;9.282;2023-05-20T15:47:44;22.70;73.90
2158;DHT22;41972;48.774;9.282;2023-05-20T15:50:10;22.70;75.30
2158;DHT22;41972;48.774;9.282;2023-05-20T15:52:37;22.70;73.10
2158;DHT22;41972;48.774;9.282;2023-05-20T15:55:02;22.70;74.80
2158;DHT22;41972;48.774;9.282;2023-05-20T15:57:28;22.70;71.70